sensor_id;sensor_type;location;lat;lon;timestamp;pressure;altitude;pressure_sealevel;temperature;humidity
67345;BME280;54230;52.402;6.276;2023-07-28T00:00:00;100390.0;;;21.5;75.4
67345;BME280;54230;52.402;6.276;2023-07-28T00:05:00;100380.0;;;21.6;74.9
67345;BME280;54230;52.402;6.276;2023-07-28T00:10:00;100390.0;;;21.6;75.0
67345;BME280;54230;52.402;6.276;2023-07-28T00:15:00;100390.0;;;21.6;75.1
67345;BME280;54230;52.402;6.276;2023-07-28T00:20:00;100390.0;;;21.7;75.0
67345;BME280;54230;52.402;6.276;2023-07-28T00:25:00;100390.0;;;21.7;74.9
67345;BME280;54230;52.402;6.276;2023-07-28T00:30:00;100390.0;;;21.6;75.1
67345;BME280;54230;52.402;6.276;2023-07-28T00:35:00;100390.0;;;21.6;75.3
67345;BME280;54230;52.402;6.276;2023-07-28T00:40:00;100390.0;;;21.6;75.5
67345;BME280;54230;52.402;6.276;2023-07-28T00:45:00;100390.0;;;21.6;75.5
67345;BME280;54230;52.402;6.276;2023-07-28T00:50:01;100390.0;;;21.6;75.7
67345;BME280;54230;52.402;6.276;2023-07-28T00:55:00;100380.0;;;21.6;76.0
67345;BME280;54230;52.402;6.276;2023-07-28T01:00:01;100380.0;;;21.6;75.8
67345;BME280;54230;52.402;6.276;2023-07-28T01:05:00;100380.0;;;21.6;75.9
67345;BME280;54230;52.402;6.276;2023-07-28T01:10:03;100380.0;;;21.7;76.0
67345;BME280;54230;52.402;6.276;2023-07-28T01:15:00;100390.0;;;21.6;75.9
67345;BME280;54230;52.402;6.276;2023-07-28T01:20:01;100380.0;;;21.6;76.0
67345;BME280;54230;52.402;6.276;2023-07-28T01:25:05;100390.0;;;21.6;76.0
67345;BME280;54230;52.402;6.276;2023-07-28T01:30:00;100390.0;;;21.5;75.9
67345;BME280;54230;52.402;6.276;2023-07-28T01:35:00;100400.0;;;21.5;76.0
67345;BME280;54230;52.402;6.276;2023-07-28T01:40:00;100400.0;;;21.6;76.1
67345;BME280;54230;52.402;6.276;2023-07-28T01:45:00;100400.0;;;21.6;75.9
67345;BME280;54230;52.402;6.276;2023-07-28T01:50:00;100400.0;;;21.5;75.9
67345;BME280;54230;52.402;6.276;2023-07-28T01:55:00;100380.0;;;21.3;76.0
67345;BME280;54230;52.402;6.276;2023-07-28T02:00:00;100390.0;;;21.3;76.3
67345;BME280;54230;52.402;6.276;2023-07-28T02:05:00;100390.0;;;21.3;76.5
67345;BME280;54230;52.402;6.276;2023-07-28T02:10:00;100400.0;;;21.3;76.5
67345;BME280;54230;52.402;6.276;2023-07-28T02:15:00;100400.0;;;21.3;76.3
67345;BME280;54230;52.402;6.276;2023-07-28T02:20:01;100400.0;;;21.2;76.4
67345;BME280;54230;52.402;6.276;2023-07-28T02:25:00;100410.0;;;21.3;76.6
67345;BME280;54230;52.402;6.276;2023-07-28T02:30:00;100400.0;;;21.2;76.4
67345;BME280;54230;52.402;6.276;2023-07-28T02:35:00;100400.0;;;21.1;76.6
67345;BME280;54230;52.402;6.276;2023-07-28T02:40:00;100400.0;;;21.1;76.7
67345;BME280;54230;52.402;6.276;2023-07-28T02:45:00;100410.0;;;21.1;76.7
67345;BME280;54230;52.402;6.276;2023-07-28T02:50:00;100400.0;;;21.1;76.6
67345;BME280;54230;52.402;6.276;2023-07-28T02:55:00;100410.0;;;21.0;77.1
67345;BME280;54230;52.402;6.276;2023-07-28T03:00:00;100410.0;;;21.1;77.0
67345;BME280;54230;52.402;6.276;2023-07-28T03:05:00;100420.0;;;21.1;76.8
67345;BME280;54230;52.402;6.276;2023-07-28T03:10:00;100420.0;;;21.0;77.1
67345;BME280;54230;52.402;6.276;2023-07-28T03:15:00;100420.0;;;21.0;77.2
67345;BME280;54230;52.402;6.276;2023-07-28T03:20:00;100420.0;;;21.0;77.2
67345;BME280;54230;52.402;6.276;2023-07-28T03:25:00;100430.0;;;21.1;77.2
67345;BME280;54230;52.402;6.276;2023-07-28T03:30:00;100430.0;;;21.0;77.3
67345;BME280;54230;52.402;6.276;2023-07-28T03:35:00;100430.0;;;21.1;77.6
67345;BME280;54230;52.402;6.276;2023-07-28T03:40:00;100440.0;;;21.2;77.5
67345;BME280;54230;52.402;6.276;2023-07-28T03:45:00;100440.0;;;21.3;77.1
67345;BME280;54230;52.402;6.276;2023-07-28T03:50:00;100440.0;;;21.3;77.3
67345;BME280;54230;52.402;6.276;2023-07-28T03:55:00;100440.0;;;21.4;77.3
67345;BME280;54230;52.402;6.276;2023-07-28T04:00:00;100440.0;;;21.4;76.9
67345;BME280;54230;52.402;6.276;2023-07-28T04:05:00;100440.0;;;21.4;76.9
67345;BME280;54230;52.402;6.276;2023-07-28T04:10:00;100450.0;;;21.4;77.0
67345;BME280;54230;52.402;6.276;2023-07-28T04:15:00;100460.0;;;21.4;76.8
67345;BME280;54230;52.402;6.276;2023-07-28T04:20:00;100460.0;;;21.4;77.0
67345;BME280;54230;52.402;6.276;2023-07-28T04:25:00;100460.0;;;21.4;76.9
67345;BME280;54230;52.402;6.276;2023-07-28T04:30:00;100460.0;;;21.5;76.7
67345;BME280;54230;52.402;6.276;2023-07-28T04:35:00;100470.0;;;21.5;76.7
67345;BME280;54230;52.402;6.276;2023-07-28T04:40:00;100470.0;;;21.6;76.7
67345;BME280;54230;52.402;6.276;2023-07-28T04:45:00;100470.0;;;21.6;76.3
67345;BME280;54230;52.402;6.276;2023-07-28T04:50:00;100480.0;;;21.6;76.1
67345;BME280;54230;52.402;6.276;2023-07-28T04:55:00;100480.0;;;21.6;76.2
67345;BME280;54230;52.402;6.276;2023-07-28T05:00:00;100490.0;;;21.7;76.4
67345;BME280;54230;52.402;6.276;2023-07-28T05:05:00;100490.0;;;21.8;76.0
67345;BME280;54230;52.402;6.276;2023-07-28T05:10:00;100490.0;;;21.9;75.7
67345;BME280;54230;52.402;6.276;2023-07-28T05:15:00;100490.0;;;21.9;75.9
67345;BME280;54230;52.402;6.276;2023-07-28T05:20:00;100490.0;;;21.9;75.9
67345;BME280;54230;52.402;6.276;2023-07-28T05:25:00;100490.0;;;22.0;75.7
67345;BME280;54230;52.402;6.276;2023-07-28T05:30:00;100500.0;;;22.1;75.5
67345;BME280;54230;52.402;6.276;2023-07-28T05:35:00;100490.0;;;22.2;74.9
67345;BME280;54230;52.402;6.276;2023-07-28T05:40:00;100490.0;;;22.3;74.4
67345;BME280;54230;52.402;6.276;2023-07-28T05:45:00;100500.0;;;22.2;74.7
67345;BME280;54230;52.402;6.276;2023-07-28T05:50:00;100490.0;;;22.3;74.8
67345;BME280;54230;52.402;6.276;2023-07-28T05:55:00;100500.0;;;22.4;74.5
67345;BME280;54230;52.402;6.276;2023-07-28T06:00:00;100500.0;;;22.6;73.9
67345;BME280;54230;52.402;6.276;2023-07-28T06:05:00;100500.0;;;22.8;73.5
67345;BME280;54230;52.402;6.276;2023-07-28T06:10:00;100510.0;;;22.9;73.3
67345;BME280;54230;52.402;6.276;2023-07-28T06:15:00;100520.0;;;23.1;72.6
67345;BME280;54230;52.402;6.276;2023-07-28T06:20:00;100520.0;;;23.2;72.3
67345;BME280;54230;52.402;6.276;2023-07-28T06:25:00;100530.0;;;23.1;72.4
67345;BME280;54230;52.402;6.276;2023-07-28T06:30:00;100540.0;;;23.3;72.2
67345;BME280;54230;52.402;6.276;2023-07-28T06:35:00;100540.0;;;23.3;71.8
67345;BME280;54230;52.402;6.276;2023-07-28T06:40:00;100550.0;;;23.2;71.7
67345;BME280;54230;52.402;6.276;2023-07-28T06:45:00;100560.0;;;23.1;71.9
67345;BME280;54230;52.402;6.276;2023-07-28T06:50:00;100560.0;;;23.0;72.4
67345;BME280;54230;52.402;6.276;2023-07-28T06:55:00;100570.0;;;22.9;73.2
67345;BME280;54230;52.402;6.276;2023-07-28T07:00:00;100580.0;;;22.9;73.4
67345;BME280;54230;52.402;6.276;2023-07-28T07:05:00;100590.0;;;23.1;73.1
67345;BME280;54230;52.402;6.276;2023-07-28T07:10:00;100590.0;;;23.2;72.9
67345;BME280;54230;52.402;6.276;2023-07-28T07:15:00;100600.0;;;23.3;72.6
67345;BME280;54230;52.402;6.276;2023-07-28T07:20:00;100610.0;;;23.4;72.1
67345;BME280;54230;52.402;6.276;2023-07-28T07:25:00;100610.0;;;23.4;72.0
67345;BME280;54230;52.402;6.276;2023-07-28T07:30:00;100610.0;;;23.4;72.0
67345;BME280;54230;52.402;6.276;2023-07-28T07:35:00;100610.0;;;23.5;72.0
67345;BME280;54230;52.402;6.276;2023-07-28T07:40:00;100610.0;;;23.4;71.8
67345;BME280;54230;52.402;6.276;2023-07-28T07:45:00;100620.0;;;23.4;71.8
67345;BME280;54230;52.402;6.276;2023-07-28T07:50:00;100630.0;;;23.4;72.3
67345;BME280;54230;52.402;6.276;2023-07-28T07:55:00;100630.0;;;23.5;71.8
67345;BME280;54230;52.402;6.276;2023-07-28T08:00:00;100630.0;;;23.2;72.6
67345;BME280;54230;52.402;6.276;2023-07-28T08:05:00;100640.0;;;23.1;73.6
67345;BME280;54230;52.402;6.276;2023-07-28T08:10:00;100640.0;;;22.9;73.3
67345;BME280;54230;52.402;6.276;2023-07-28T08:15:00;100650.0;;;22.7;74.0
67345;BME280;54230;52.402;6.276;2023-07-28T08:20:00;100660.0;;;22.7;73.9
67345;BME280;54230;52.402;6.276;2023-07-28T08:25:00;100660.0;;;22.8;74.1
67345;BME280;54230;52.402;6.276;2023-07-28T08:30:00;100660.0;;;22.9;72.9
67345;BME280;54230;52.402;6.276;2023-07-28T08:35:00;100670.0;;;22.8;72.2
67345;BME280;54230;52.402;6.276;2023-07-28T08:40:00;100670.0;;;22.7;72.7
67345;BME280;54230;52.402;6.276;2023-07-28T08:45:00;100670.0;;;22.7;72.8
67345;BME280;54230;52.402;6.276;2023-07-28T08:50:00;100670.0;;;22.8;73.0
67345;BME280;54230;52.402;6.276;2023-07-28T08:55:00;100680.0;;;22.9;72.7
67345;BME280;54230;52.402;6.276;2023-07-28T09:00:06;100680.0;;;22.9;73.0
67345;BME280;54230;52.402;6.276;2023-07-28T09:05:02;100680.0;;;23.0;72.6
67345;BME280;54230;52.402;6.276;2023-07-28T09:10:00;100690.0;;;23.1;72.3
67345;BME280;54230;52.402;6.276;2023-07-28T09:15:00;100690.0;;;23.1;72.5
67345;BME280;54230;52.402;6.276;2023-07-28T09:20:00;100690.0;;;23.3;72.9
67345;BME280;54230;52.402;6.276;2023-07-28T09:25:11;100690.0;;;23.4;72.7
67345;BME280;54230;52.402;6.276;2023-07-28T09:30:00;100690.0;;;23.3;72.9
67345;BME280;54230;52.402;6.276;2023-07-28T09:35:09;100690.0;;;23.4;72.6
67345;BME280;54230;52.402;6.276;2023-07-28T09:40:02;100690.0;;;23.2;72.8
67345;BME280;54230;52.402;6.276;2023-07-28T09:45:00;100690.0;;;23.3;73.4
67345;BME280;54230;52.402;6.276;2023-07-28T09:50:02;100690.0;;;23.8;71.9
67345;BME280;54230;52.402;6.276;2023-07-28T09:55:03;100690.0;;;24.1;71.1
67345;BME280;54230;52.402;6.276;2023-07-28T10:00:02;100690.0;;;24.5;70.4
67345;BME280;54230;52.402;6.276;2023-07-28T10:05:01;100690.0;;;24.7;69.1
67345;BME280;54230;52.402;6.276;2023-07-28T10:10:01;100690.0;;;24.9;68.9
67345;BME280;54230;52.402;6.276;2023-07-28T10:15:01;100690.0;;;24.7;68.1
67345;BME280;54230;52.402;6.276;2023-07-28T10:20:02;100700.0;;;24.6;69.3
67345;BME280;54230;52.402;6.276;2023-07-28T10:25:01;100700.0;;;25.0;68.7
67345;BME280;54230;52.402;6.276;2023-07-28T10:30:02;100710.0;;;24.8;67.1
67345;BME280;54230;52.402;6.276;2023-07-28T10:35:01;100710.0;;;24.6;69.0
67345;BME280;54230;52.402;6.276;2023-07-28T10:45:00;100700.0;;;25.4;68.2
67345;BME280;54230;52.402;6.276;2023-07-28T10:50:02;100690.0;;;25.5;67.7
67345;BME280;54230;52.402;6.276;2023-07-28T10:55:00;100690.0;;;25.8;66.9
67345;BME280;54230;52.402;6.276;2023-07-28T11:00:00;100700.0;;;26.2;64.6
67345;BME280;54230;52.402;6.276;2023-07-28T11:05:05;100700.0;;;26.0;63.9
67345;BME280;54230;52.402;6.276;2023-07-28T11:10:01;100700.0;;;26.0;64.8
67345;BME280;54230;52.402;6.276;2023-07-28T11:15:00;100700.0;;;26.3;63.0
67345;BME280;54230;52.402;6.276;2023-07-28T11:20:00;100700.0;;;26.5;62.9
67345;BME280;54230;52.402;6.276;2023-07-28T11:25:00;100700.0;;;26.7;62.2
67345;BME280;54230;52.402;6.276;2023-07-28T11:30:01;100710.0;;;26.5;61.5
67345;BME280;54230;52.402;6.276;2023-07-28T11:35:03;100710.0;;;26.3;62.1
67345;BME280;54230;52.402;6.276;2023-07-28T11:40:01;100700.0;;;26.3;61.5
67345;BME280;54230;52.402;6.276;2023-07-28T11:45:02;100700.0;;;26.2;61.2
67345;BME280;54230;52.402;6.276;2023-07-28T11:50:00;100700.0;;;26.2;59.9
67345;BME280;54230;52.402;6.276;2023-07-28T11:55:01;100700.0;;;26.3;58.9
67345;BME280;54230;52.402;6.276;2023-07-28T12:00:00;100690.0;;;26.2;58.9
67345;BME280;54230;52.402;6.276;2023-07-28T12:05:00;100690.0;;;26.5;58.6
67345;BME280;54230;52.402;6.276;2023-07-28T12:10:02;100690.0;;;26.7;58.1
67345;BME280;54230;52.402;6.276;2023-07-28T12:15:00;100690.0;;;27.1;56.8
67345;BME280;54230;52.402;6.276;2023-07-28T12:20:01;100680.0;;;27.3;55.8
67345;BME280;54230;52.402;6.276;2023-07-28T12:25:00;100690.0;;;27.5;55.5
67345;BME280;54230;52.402;6.276;2023-07-28T12:30:01;100700.0;;;27.3;55.5
67345;BME280;54230;52.402;6.276;2023-07-28T12:35:00;100710.0;;;27.1;56.3
67345;BME280;54230;52.402;6.276;2023-07-28T12:40:00;100720.0;;;27.2;56.3
67345;BME280;54230;52.402;6.276;2023-07-28T12:45:00;100700.0;;;27.3;55.8
67345;BME280;54230;52.402;6.276;2023-07-28T12:50:00;100710.0;;;27.3;56.1
67345;BME280;54230;52.402;6.276;2023-07-28T12:55:00;100710.0;;;27.6;55.3
67345;BME280;54230;52.402;6.276;2023-07-28T13:00:00;100710.0;;;27.7;54.4
67345;BME280;54230;52.402;6.276;2023-07-28T13:05:00;100710.0;;;27.5;54.6
67345;BME280;54230;52.402;6.276;2023-07-28T13:10:00;100720.0;;;27.7;55.2
67345;BME280;54230;52.402;6.276;2023-07-28T13:15:00;100720.0;;;27.9;54.1
67345;BME280;54230;52.402;6.276;2023-07-28T13:20:00;100720.0;;;27.8;53.7
67345;BME280;54230;52.402;6.276;2023-07-28T13:25:00;100720.0;;;27.5;53.3
67345;BME280;54230;52.402;6.276;2023-07-28T13:30:00;100730.0;;;27.3;54.0
67345;BME280;54230;52.402;6.276;2023-07-28T13:35:00;100730.0;;;26.8;55.4
67345;BME280;54230;52.402;6.276;2023-07-28T13:40:00;100740.0;;;27.1;55.5
67345;BME280;54230;52.402;6.276;2023-07-28T13:45:00;100730.0;;;27.4;55.5
67345;BME280;54230;52.402;6.276;2023-07-28T13:50:00;100720.0;;;27.8;53.8
67345;BME280;54230;52.402;6.276;2023-07-28T13:55:00;100720.0;;;28.2;54.8
67345;BME280;54230;52.402;6.276;2023-07-28T14:00:00;100720.0;;;29.1;53.4
67345;BME280;54230;52.402;6.276;2023-07-28T14:05:00;100720.0;;;29.8;51.6
67345;BME280;54230;52.402;6.276;2023-07-28T14:10:00;100730.0;;;30.1;49.6
67345;BME280;54230;52.402;6.276;2023-07-28T14:15:00;100720.0;;;30.6;49.6
67345;BME280;54230;52.402;6.276;2023-07-28T14:20:00;100730.0;;;29.9;48.1
67345;BME280;54230;52.402;6.276;2023-07-28T14:25:00;100730.0;;;29.9;49.1
67345;BME280;54230;52.402;6.276;2023-07-28T14:30:00;100730.0;;;29.5;49.2
67345;BME280;54230;52.402;6.276;2023-07-28T14:35:00;100720.0;;;29.9;48.7
67345;BME280;54230;52.402;6.276;2023-07-28T14:40:00;100720.0;;;30.3;47.6
67345;BME280;54230;52.402;6.276;2023-07-28T14:45:00;100720.0;;;29.9;48.0
67345;BME280;54230;52.402;6.276;2023-07-28T14:50:00;100730.0;;;29.9;48.0
67345;BME280;54230;52.402;6.276;2023-07-28T14:55:00;100720.0;;;30.4;46.7
67345;BME280;54230;52.402;6.276;2023-07-28T15:00:00;100720.0;;;30.6;45.5
67345;BME280;54230;52.402;6.276;2023-07-28T15:05:00;100720.0;;;30.8;45.0
67345;BME280;54230;52.402;6.276;2023-07-28T15:10:00;100720.0;;;30.9;44.3
67345;BME280;54230;52.402;6.276;2023-07-28T15:15:00;100720.0;;;31.1;43.5
67345;BME280;54230;52.402;6.276;2023-07-28T15:20:00;100720.0;;;31.2;43.8
67345;BME280;54230;52.402;6.276;2023-07-28T15:25:01;100720.0;;;31.3;43.3
67345;BME280;54230;52.402;6.276;2023-07-28T15:30:00;100720.0;;;31.2;42.3
67345;BME280;54230;52.402;6.276;2023-07-28T15:35:00;100720.0;;;31.4;42.4
67345;BME280;54230;52.402;6.276;2023-07-28T15:40:00;100710.0;;;31.1;42.6
67345;BME280;54230;52.402;6.276;2023-07-28T15:45:00;100700.0;;;30.6;44.6
67345;BME280;54230;52.402;6.276;2023-07-28T15:50:00;100710.0;;;30.8;45.1
67345;BME280;54230;52.402;6.276;2023-07-28T15:55:00;100700.0;;;30.4;45.2
67345;BME280;54230;52.402;6.276;2023-07-28T16:00:00;100700.0;;;30.3;45.2
67345;BME280;54230;52.402;6.276;2023-07-28T16:05:00;100710.0;;;30.7;44.9
67345;BME280;54230;52.402;6.276;2023-07-28T16:10:00;100720.0;;;30.9;44.0
67345;BME280;54230;52.402;6.276;2023-07-28T16:15:00;100710.0;;;30.6;44.5
67345;BME280;54230;52.402;6.276;2023-07-28T16:20:01;100720.0;;;30.8;43.8
67345;BME280;54230;52.402;6.276;2023-07-28T16:25:00;100710.0;;;31.1;43.1
67345;BME280;54230;52.402;6.276;2023-07-28T16:30:04;100700.0;;;31.5;42.7
67345;BME280;54230;52.402;6.276;2023-07-28T16:35:00;100700.0;;;31.6;42.7
67345;BME280;54230;52.402;6.276;2023-07-28T16:40:00;100700.0;;;31.7;41.7
67345;BME280;54230;52.402;6.276;2023-07-28T16:45:00;100700.0;;;30.9;43.1
67345;BME280;54230;52.402;6.276;2023-07-28T16:50:00;100690.0;;;30.3;44.2
67345;BME280;54230;52.402;6.276;2023-07-28T16:55:01;100690.0;;;29.3;46.0
67345;BME280;54230;52.402;6.276;2023-07-28T17:00:00;100680.0;;;29.3;47.3
67345;BME280;54230;52.402;6.276;2023-07-28T17:05:00;100680.0;;;29.1;47.4
67345;BME280;54230;52.402;6.276;2023-07-28T17:10:00;100690.0;;;29.0;47.7
67345;BME280;54230;52.402;6.276;2023-07-28T17:15:00;100680.0;;;28.7;48.8
67345;BME280;54230;52.402;6.276;2023-07-28T17:20:00;100690.0;;;28.7;49.0
67345;BME280;54230;52.402;6.276;2023-07-28T17:25:00;100700.0;;;28.6;48.9
67345;BME280;54230;52.402;6.276;2023-07-28T17:30:00;100700.0;;;28.5;49.1
67345;BME280;54230;52.402;6.276;2023-07-28T17:35:00;100700.0;;;28.5;49.2
67345;BME280;54230;52.402;6.276;2023-07-28T17:40:00;100700.0;;;28.4;49.6
67345;BME280;54230;52.402;6.276;2023-07-28T17:45:00;100700.0;;;28.2;49.6
67345;BME280;54230;52.402;6.276;2023-07-28T17:50:00;100700.0;;;28.2;50.5
67345;BME280;54230;52.402;6.276;2023-07-28T17:55:00;100710.0;;;28.1;50.1
67345;BME280;54230;52.402;6.276;2023-07-28T18:00:00;100700.0;;;28.1;50.7
67345;BME280;54230;52.402;6.276;2023-07-28T18:05:00;100700.0;;;28.0;50.7
67345;BME280;54230;52.402;6.276;2023-07-28T18:10:00;100710.0;;;27.9;50.4
67345;BME280;54230;52.402;6.276;2023-07-28T18:15:00;100710.0;;;27.8;51.0
67345;BME280;54230;52.402;6.276;2023-07-28T18:20:00;100710.0;;;27.6;51.2
67345;BME280;54230;52.402;6.276;2023-07-28T18:25:00;100700.0;;;27.4;51.2
67345;BME280;54230;52.402;6.276;2023-07-28T18:30:00;100710.0;;;27.2;51.9
67345;BME280;54230;52.402;6.276;2023-07-28T18:35:00;100710.0;;;27.1;52.3
67345;BME280;54230;52.402;6.276;2023-07-28T18:40:00;100720.0;;;27.0;52.8
67345;BME280;54230;52.402;6.276;2023-07-28T18:45:00;100720.0;;;27.0;52.9
67345;BME280;54230;52.402;6.276;2023-07-28T18:50:00;100730.0;;;26.9;53.3
67345;BME280;54230;52.402;6.276;2023-07-28T18:55:00;100740.0;;;26.9;53.7
67345;BME280;54230;52.402;6.276;2023-07-28T19:00:00;100740.0;;;26.7;54.0
67345;BME280;54230;52.402;6.276;2023-07-28T19:05:00;100740.0;;;26.3;54.0
67345;BME280;54230;52.402;6.276;2023-07-28T19:10:00;100740.0;;;26.2;54.2
67345;BME280;54230;52.402;6.276;2023-07-28T19:15:00;100740.0;;;26.0;54.4
67345;BME280;54230;52.402;6.276;2023-07-28T19:20:00;100740.0;;;25.9;55.2
67345;BME280;54230;52.402;6.276;2023-07-28T19:25:00;100740.0;;;25.7;56.0
67345;BME280;54230;52.402;6.276;2023-07-28T19:30:00;100750.0;;;25.7;56.5
67345;BME280;54230;52.402;6.276;2023-07-28T19:35:00;100750.0;;;25.6;56.5
67345;BME280;54230;52.402;6.276;2023-07-28T19:40:00;100750.0;;;25.5;57.0
67345;BME280;54230;52.402;6.276;2023-07-28T19:45:00;100750.0;;;25.5;57.0
67345;BME280;54230;52.402;6.276;2023-07-28T19:50:00;100760.0;;;25.5;57.2
67345;BME280;54230;52.402;6.276;2023-07-28T19:55:00;100760.0;;;25.4;57.4
67345;BME280;54230;52.402;6.276;2023-07-28T20:00:00;100770.0;;;25.2;57.6
67345;BME280;54230;52.402;6.276;2023-07-28T20:05:00;100770.0;;;25.1;58.0
67345;BME280;54230;52.402;6.276;2023-07-28T20:10:00;100770.0;;;24.9;58.4
67345;BME280;54230;52.402;6.276;2023-07-28T20:15:00;100770.0;;;24.8;58.9
67345;BME280;54230;52.402;6.276;2023-07-28T20:20:00;100770.0;;;24.6;59.2
67345;BME280;54230;52.402;6.276;2023-07-28T20:25:00;100770.0;;;24.5;59.7
67345;BME280;54230;52.402;6.276;2023-07-28T20:30:00;100770.0;;;24.3;60.0
67345;BME280;54230;52.402;6.276;2023-07-28T20:35:00;100770.0;;;24.2;60.3
67345;BME280;54230;52.402;6.276;2023-07-28T20:40:00;100770.0;;;24.0;60.7
67345;BME280;54230;52.402;6.276;2023-07-28T20:45:00;100770.0;;;23.9;61.1
67345;BME280;54230;52.402;6.276;2023-07-28T20:50:00;100770.0;;;23.5;62.3
67345;BME280;54230;52.402;6.276;2023-07-28T20:55:00;100780.0;;;23.4;63.0
67345;BME280;54230;52.402;6.276;2023-07-28T21:00:00;100770.0;;;23.5;63.1
67345;BME280;54230;52.402;6.276;2023-07-28T21:05:00;100780.0;;;23.3;63.7
67345;BME280;54230;52.402;6.276;2023-07-28T21:10:00;100770.0;;;23.1;64.7
67345;BME280;54230;52.402;6.276;2023-07-28T21:15:00;100770.0;;;23.0;65.3
67345;BME280;54230;52.402;6.276;2023-07-28T21:20:00;100770.0;;;23.0;65.3
67345;BME280;54230;52.402;6.276;2023-07-28T21:25:00;100770.0;;;22.9;66.0
67345;BME280;54230;52.402;6.276;2023-07-28T21:30:00;100770.0;;;22.9;66.0
67345;BME280;54230;52.402;6.276;2023-07-28T21:35:00;100770.0;;;23.2;65.2
67345;BME280;54230;52.402;6.276;2023-07-28T21:40:00;100760.0;;;23.2;64.8
67345;BME280;54230;52.402;6.276;2023-07-28T21:45:00;100760.0;;;23.2;64.4
67345;BME280;54230;52.402;6.276;2023-07-28T21:50:00;100760.0;;;23.2;64.4
67345;BME280;54230;52.402;6.276;2023-07-28T21:55:00;100750.0;;;23.4;64.1
67345;BME280;54230;52.402;6.276;2023-07-28T22:00:00;100750.0;;;23.4;63.6
67345;BME280;54230;52.402;6.276;2023-07-28T22:05:00;100770.0;;;23.4;63.5
67345;BME280;54230;52.402;6.276;2023-07-28T22:10:01;100760.0;;;23.4;63.4
67345;BME280;54230;52.402;6.276;2023-07-28T22:15:00;100750.0;;;23.3;63.1
67345;BME280;54230;52.402;6.276;2023-07-28T22:20:00;100760.0;;;23.1;63.7
67345;BME280;54230;52.402;6.276;2023-07-28T22:25:00;100740.0;;;23.0;64.0
67345;BME280;54230;52.402;6.276;2023-07-28T22:30:00;100750.0;;;22.8;64.8
67345;BME280;54230;52.402;6.276;2023-07-28T22:35:00;100740.0;;;22.9;64.2
67345;BME280;54230;52.402;6.276;2023-07-28T22:40:00;100740.0;;;23.0;64.3
67345;BME280;54230;52.402;6.276;2023-07-28T22:45:00;100730.0;;;22.9;64.0
67345;BME280;54230;52.402;6.276;2023-07-28T22:50:00;100730.0;;;22.8;64.9
67345;BME280;54230;52.402;6.276;2023-07-28T22:55:00;100740.0;;;22.9;64.9
67345;BME280;54230;52.402;6.276;2023-07-28T23:00:00;100730.0;;;22.8;65.1
67345;BME280;54230;52.402;6.276;2023-07-28T23:05:00;100730.0;;;22.8;65.4
67345;BME280;54230;52.402;6.276;2023-07-28T23:10:00;100730.0;;;22.9;64.8
67345;BME280;54230;52.402;6.276;2023-07-28T23:15:00;100730.0;;;22.8;65.1
67345;BME280;54230;52.402;6.276;2023-07-28T23:20:00;100730.0;;;22.8;65.2
67345;BME280;54230;52.402;6.276;2023-07-28T23:25:00;100730.0;;;22.7;65.6
67345;BME280;54230;52.402;6.276;2023-07-28T23:30:00;100730.0;;;22.7;65.4
67345;BME280;54230;52.402;6.276;2023-07-28T23:35:00;100730.0;;;22.5;66.2
67345;BME280;54230;52.402;6.276;2023-07-28T23:40:00;100720.0;;;22.5;66.2
67345;BME280;54230;52.402;6.276;2023-07-28T23:45:00;100720.0;;;22.5;66.3
67345;BME280;54230;52.402;6.276;2023-07-28T23:50:00;100710.0;;;22.5;66.6
67345;BME280;54230;52.402;6.276;2023-07-28T23:55:00;100710.0;;;22.5;66.4
